createdAt,value
2018-09-06T00:00:15.664Z,17.27
2018-09-06T00:05:19.255Z,17.18
2018-09-06T00:10:22.856Z,17.10
2018-09-06T00:15:26.574Z,17.12
2018-09-06T00:20:30.485Z,16.90
2018-09-06T00:25:34.255Z,16.81
2018-09-06T00:30:37.859Z,16.97
2018-09-06T00:35:42.310Z,16.95
2018-09-06T00:40:45.916Z,16.89
2018-09-06T00:45:49.474Z,16.86
2018-09-06T00:50:53.005Z,16.89
2018-09-06T00:55:56.510Z,16.86
2018-09-06T01:01:00.127Z,16.68
2018-09-06T01:06:03.974Z,16.62
2018-09-06T01:11:07.626Z,16.67
2018-09-06T01:16:11.150Z,16.57
2018-09-06T01:21:14.702Z,16.52
2018-09-06T01:26:18.297Z,16.46
2018-09-06T01:31:21.895Z,16.56
2018-09-06T01:36:30.689Z,16.41
2018-09-06T01:41:34.337Z,16.33
2018-09-06T01:46:38.854Z,16.35
2018-09-06T01:51:42.467Z,16.24
2018-09-06T01:56:45.951Z,16.01
2018-09-06T02:01:49.488Z,16.12
2018-09-06T02:06:52.945Z,15.78
2018-09-06T02:11:56.402Z,15.74
2018-09-06T02:16:59.959Z,15.87
2018-09-06T02:22:03.496Z,16.12
2018-09-06T02:27:07.068Z,16.01
2018-09-06T02:32:10.612Z,16.08
2018-09-06T02:37:14.113Z,16.02
2018-09-06T02:42:17.665Z,15.91
2018-09-06T02:47:21.251Z,15.71
2018-09-06T02:52:25.641Z,15.49
2018-09-06T02:57:29.195Z,15.44
2018-09-06T03:02:32.740Z,15.08
2018-09-06T03:07:39.205Z,15.28
2018-09-06T03:12:42.702Z,15.24
2018-09-06T03:17:46.227Z,15.50
2018-09-06T03:22:49.813Z,15.69
2018-09-06T03:27:53.354Z,15.78
2018-09-06T03:32:58.319Z,15.66
2018-09-06T03:38:01.869Z,15.17
2018-09-06T03:43:05.381Z,15.01
2018-09-06T03:48:08.908Z,15.03
2018-09-06T03:53:19.007Z,15.34
2018-09-06T03:58:22.566Z,15.33
2018-09-06T04:03:26.118Z,15.54
2018-09-06T04:08:29.569Z,15.73
2018-09-06T04:13:33.191Z,15.63
2018-09-06T04:18:36.828Z,15.62
2018-09-06T04:23:40.325Z,15.64
2018-09-06T04:28:43.832Z,15.67
2018-09-06T04:33:47.390Z,15.31
2018-09-06T04:38:50.898Z,15.29
2018-09-06T04:43:54.747Z,15.37
2018-09-06T04:48:58.160Z,15.52
2018-09-06T04:54:01.681Z,15.42
2018-09-06T04:59:05.229Z,15.38
2018-09-06T05:04:08.919Z,15.23
2018-09-06T05:09:12.399Z,15.40
2018-09-06T05:14:17.469Z,15.43
2018-09-06T05:19:20.943Z,15.27
2018-09-06T05:24:24.434Z,15.32
2018-09-06T05:29:27.978Z,15.60
2018-09-06T05:34:31.450Z,15.78
2018-09-06T05:39:35.042Z,15.96
2018-09-06T05:44:38.538Z,16.00
2018-09-06T05:49:42.033Z,16.16
2018-09-06T05:54:45.550Z,16.30
2018-09-06T05:59:49.053Z,16.31
2018-09-06T06:04:52.604Z,16.42
2018-09-06T06:09:56.093Z,16.62
2018-09-06T06:14:59.621Z,16.73
2018-09-06T06:20:04.574Z,16.90
2018-09-06T06:25:08.075Z,17.07
2018-09-06T06:30:11.606Z,17.23
2018-09-06T06:35:15.025Z,17.33
2018-09-06T06:40:18.545Z,17.51
2018-09-06T06:45:22.066Z,17.55
2018-09-06T06:50:25.755Z,17.77
2018-09-06T06:55:29.266Z,17.97
2018-09-06T07:00:36.956Z,18.06
2018-09-06T07:05:41.471Z,18.25
2018-09-06T07:10:44.978Z,18.38
2018-09-06T07:15:48.525Z,18.60
2018-09-06T07:20:52.144Z,18.73
2018-09-06T07:25:55.718Z,18.90
2018-09-06T07:30:59.215Z,19.12
2018-09-06T07:36:02.768Z,19.30
2018-09-06T07:41:07.366Z,19.57
2018-09-06T07:46:10.864Z,19.74
2018-09-06T07:51:15.226Z,19.94
2018-09-06T07:56:18.776Z,20.26
2018-09-06T08:01:23.223Z,20.33
2018-09-06T08:06:26.826Z,20.59
2018-09-06T08:11:30.526Z,20.85
2018-09-06T08:16:34.433Z,21.23
2018-09-06T08:21:37.958Z,21.32
2018-09-06T08:26:41.487Z,21.36
2018-09-06T08:31:45.011Z,21.82
2018-09-06T08:36:48.601Z,22.13
2018-09-06T08:41:52.093Z,22.21
2018-09-06T08:46:55.618Z,22.29
2018-09-06T08:51:59.241Z,22.66
2018-09-06T08:57:02.796Z,22.83
2018-09-06T09:02:12.580Z,22.97
2018-09-06T09:07:16.088Z,23.11
2018-09-06T09:12:19.685Z,23.16
2018-09-06T09:17:23.227Z,23.37
2018-09-06T09:22:26.888Z,23.58
2018-09-06T09:27:36.868Z,23.98
2018-09-06T09:32:40.350Z,24.18
2018-09-06T09:37:43.880Z,24.43
2018-09-06T09:42:47.378Z,24.46
2018-09-06T09:47:50.925Z,24.44
2018-09-06T09:52:54.458Z,24.61
2018-09-06T09:57:57.942Z,24.72
2018-09-06T10:03:06.865Z,24.79
2018-09-06T10:08:15.486Z,24.98
2018-09-06T10:13:19.167Z,25.12
2018-09-06T10:18:22.670Z,25.44
2018-09-06T10:23:26.255Z,25.47
2018-09-06T10:28:29.893Z,25.18
2018-09-06T10:33:33.333Z,25.09
2018-09-06T10:38:36.795Z,25.50
2018-09-06T10:43:40.420Z,26.10
2018-09-06T10:48:44.044Z,26.20
2018-09-06T10:53:47.593Z,26.50
2018-09-06T10:58:51.935Z,26.49
2018-09-06T11:03:56.926Z,26.66
2018-09-06T11:09:00.443Z,27.42
2018-09-06T11:14:03.973Z,27.54
2018-09-06T11:19:07.558Z,27.99
2018-09-06T11:24:11.066Z,32.34
2018-09-06T11:29:14.611Z,37.32
2018-09-06T11:34:18.223Z,38.76
2018-09-06T11:39:21.772Z,39.35
2018-09-06T11:44:25.304Z,40.80
2018-09-06T11:49:28.882Z,39.68
2018-09-06T11:54:32.690Z,41.31
2018-09-06T11:59:36.302Z,40.37
2018-09-06T12:04:39.887Z,40.69
2018-09-06T12:09:43.478Z,41.78
2018-09-06T12:14:47.123Z,42.82
2018-09-06T12:19:50.623Z,41.80
2018-09-06T12:24:54.617Z,41.31
2018-09-06T12:29:58.290Z,42.24
2018-09-06T12:35:02.120Z,42.25
2018-09-06T12:40:07.598Z,44.33
2018-09-06T12:45:11.206Z,46.23
2018-09-06T12:50:14.791Z,46.39
2018-09-06T12:55:18.301Z,43.88
2018-09-06T13:00:22.137Z,44.56
2018-09-06T13:05:25.792Z,44.70
2018-09-06T13:10:29.402Z,42.39
2018-09-06T13:15:32.951Z,43.85
2018-09-06T13:20:36.520Z,42.02
2018-09-06T13:25:40.159Z,40.17
2018-09-06T13:30:43.995Z,37.74
2018-09-06T13:35:47.493Z,33.75
2018-09-06T13:40:51.038Z,32.22
2018-09-06T13:45:54.537Z,32.00
2018-09-06T13:50:58.034Z,31.34
2018-09-06T13:56:01.706Z,30.62
2018-09-06T14:01:05.270Z,29.94
2018-09-06T14:06:08.868Z,30.12
2018-09-06T14:11:12.587Z,30.29
2018-09-06T14:16:16.182Z,29.87
2018-09-06T14:21:19.752Z,29.84
2018-09-06T14:26:23.278Z,29.77
2018-09-06T14:31:26.757Z,29.51
2018-09-06T14:36:30.305Z,29.09
2018-09-06T14:41:33.884Z,28.83
2018-09-06T14:46:37.380Z,28.84
2018-09-06T14:51:40.897Z,29.37
2018-09-06T14:56:44.442Z,29.53
2018-09-06T15:01:48.179Z,29.19
2018-09-06T15:06:51.932Z,28.92
2018-09-06T15:11:55.525Z,29.02
2018-09-06T15:16:59.079Z,28.78
2018-09-06T15:22:02.636Z,28.80
2018-09-06T15:27:06.584Z,28.84
2018-09-06T15:32:12.698Z,28.97
2018-09-06T15:37:16.233Z,29.17
2018-09-06T15:42:19.729Z,29.06
2018-09-06T15:47:23.601Z,29.03
2018-09-06T15:52:27.166Z,28.95
2018-09-06T15:57:30.767Z,28.84
2018-09-06T16:02:34.352Z,28.40
2018-09-06T16:07:37.947Z,28.61
2018-09-06T16:12:41.432Z,28.50
2018-09-06T16:17:44.953Z,28.05
2018-09-06T16:22:48.447Z,28.36
2018-09-06T16:27:52.066Z,28.34
2018-09-06T16:32:55.645Z,27.71
2018-09-06T16:37:59.242Z,27.43
2018-09-06T16:43:02.931Z,27.13
2018-09-06T16:48:06.537Z,26.87
2018-09-06T16:53:10.065Z,26.63
2018-09-06T16:58:13.734Z,27.00
2018-09-06T17:03:17.294Z,26.69
2018-09-06T17:08:20.981Z,26.26
2018-09-06T17:13:24.673Z,25.89
2018-09-06T17:18:28.304Z,25.57
2018-09-06T17:23:31.983Z,25.34
2018-09-06T17:28:35.691Z,25.13
2018-09-06T17:33:39.259Z,24.98
2018-09-06T17:38:42.853Z,24.79
2018-09-06T17:43:46.548Z,24.62
2018-09-06T17:48:50.251Z,24.64
2018-09-06T17:53:53.934Z,24.48
2018-09-06T17:58:58.438Z,24.25
2018-09-06T18:04:02.525Z,24.06
2018-09-06T18:09:09.465Z,24.03
2018-09-06T18:14:13.166Z,23.90
2018-09-06T18:19:16.822Z,23.82
2018-09-06T18:24:20.441Z,23.81
2018-09-06T18:29:23.962Z,23.73
2018-09-06T18:34:27.504Z,23.68
2018-09-06T18:39:31.010Z,23.63
2018-09-06T18:44:35.440Z,23.59
2018-09-06T18:49:39.010Z,23.61
2018-09-06T18:54:42.646Z,23.69
2018-09-06T18:59:46.217Z,23.66
2018-09-06T19:04:49.948Z,23.50
2018-09-06T19:09:53.438Z,23.45
2018-09-06T19:14:57.037Z,23.45
2018-09-06T19:20:00.615Z,23.63
2018-09-06T19:25:05.466Z,23.50
2018-09-06T19:30:09.329Z,23.46
2018-09-06T19:35:12.863Z,23.49
2018-09-06T19:40:16.437Z,23.36
2018-09-06T19:45:19.981Z,23.32
2018-09-06T19:51:26.251Z,23.37
2018-09-06T19:56:29.745Z,23.18
2018-09-06T20:01:33.226Z,23.13
2018-09-06T20:06:36.883Z,23.13
2018-09-06T20:11:40.374Z,22.88
2018-09-06T20:16:43.920Z,22.96
2018-09-06T20:21:47.429Z,23.02
2018-09-06T20:26:50.898Z,23.08
2018-09-06T20:31:54.453Z,22.88
2018-09-06T20:36:57.997Z,22.88
2018-09-06T20:42:01.552Z,22.78
2018-09-06T20:47:05.356Z,22.77
2018-09-06T20:52:08.895Z,22.73
2018-09-06T20:57:12.996Z,22.73
2018-09-06T21:02:22.073Z,22.82
2018-09-06T21:07:26.734Z,22.83
2018-09-06T21:12:30.407Z,22.75
2018-09-06T21:17:33.990Z,22.80
2018-09-06T21:22:37.454Z,22.72
2018-09-06T21:27:41.036Z,22.73
2018-09-06T21:32:44.622Z,22.64
2018-09-06T21:37:48.320Z,22.83
2018-09-06T21:42:52.055Z,22.61
2018-09-06T21:47:55.872Z,22.53
2018-09-06T21:52:59.465Z,22.53
2018-09-06T21:58:03.071Z,22.49
2018-09-06T22:03:11.940Z,22.25
2018-09-06T22:08:15.983Z,22.21
2018-09-06T22:13:19.494Z,22.17
2018-09-06T22:18:23.015Z,22.11
2018-09-06T22:23:26.592Z,22.16
2018-09-06T22:28:30.129Z,22.21
2018-09-06T22:33:33.704Z,22.11
2018-09-06T22:38:37.811Z,21.98
2018-09-06T22:43:41.441Z,22.06
2018-09-06T22:48:44.995Z,22.06
2018-09-06T22:53:48.481Z,22.07
2018-09-06T22:58:52.060Z,22.01
2018-09-06T23:03:56.372Z,21.99
2018-09-06T23:09:00.009Z,21.87
2018-09-06T23:14:04.308Z,21.89
2018-09-06T23:19:07.869Z,21.90
2018-09-06T23:24:13.002Z,21.83
2018-09-06T23:29:16.578Z,21.82
2018-09-06T23:34:20.082Z,21.74
2018-09-06T23:39:24.421Z,21.60
2018-09-06T23:44:27.950Z,21.52
2018-09-06T23:49:31.396Z,21.53
2018-09-06T23:54:34.896Z,21.42
2018-09-06T23:59:38.426Z,21.38
